Brisbane - nearby METAR Reports

YBBN - Brisbane Intl Ar, Australia
Distance from station: NNE 12km
Updated: 26/02/2018 01:00
Clear
Clear
 Wind from N
Wind: N 17 km/h
Temperature: 25°C
Dew Point: 24°C
Humidity: 94%
Barometer: 1006 hPa
Summary: Clear
Visibility: greater than 10 km
2018/02/25 15:00 YBBN 251500Z 35009KT CAVOK 25/24 Q1006 NOSIG
YAMB - Amberley, Australia
Distance from station: WSW 41km
Updated: 26/02/2018 01:09
Mostly cloudy
Mostly cloudy
 Wind from calm
Wind: Calm
Temperature: 23°C
Dew Point: 23°C
Humidity: 100%
Barometer: 1006 hPa
Clouds: Mostly cloudy
Cloud details: Mostly cloudy 122 m
2018/02/25 15:09 YAMB 251509Z AUTO 00000KT //// // BKN004 23/23 Q1006
 
YBCG - Coolangatta Aws, Australia
Distance from station: SSE 86km
Updated: 26/02/2018 01:00
Clear
Clear
 Wind from NW
Wind: NW 15 km/h
Temperature: 25°C
Dew Point: 24°C
Humidity: 94%
Barometer: 1006 hPa
Clouds: Clear
Visibility: 10 km
2018/02/25 15:00 YBCG 251500Z AUTO 32008KT 9999 // NCD 25/24 Q1006